Time;durP1;ratioP1;P1;durP2;ratioP2;P2;SDS_P1;SDS_P2;PMS_P1;PMS_P2;Temp;Humidity;BMP_temperature;BMP_pressure;BME280_temperature;BME280_humidity;BME280_pressure;Samples;Min_cycle;Max_cycle;Signal;HPM_P1;HPM_P2
2022/06/05 00:02:24;;;;;;;1.10;0.47;;;15.90;75.20;;;;;;4980040;28;95390;-49
2022/06/05 00:04:59;;;;;;;1.10;0.35;;;15.90;74.40;;;;;;4989248;28;95367;-48
2022/06/05 00:07:48;;;;;;;0.40;0.40;;;15.90;74.40;;;;;;4983842;28;95733;-52
2022/06/05 00:10:20;;;;;;;0.98;0.73;;;15.90;74.30;;;;;;4985333;28;96026;-51
2022/06/05 00:13:16;;;;;;;0.70;0.38;;;16.00;74.30;;;;;;4990128;28;95851;-53
2022/06/05 00:15:48;;;;;;;0.50;0.50;;;16.00;74.30;;;;;;4983285;28;95372;-51
2022/06/05 00:18:20;;;;;;;0.43;0.43;;;15.90;74.20;;;;;;4989561;28;95803;-53
2022/06/05 00:20:53;;;;;;;0.43;0.40;;;15.90;74.20;;;;;;4989877;28;96496;-49
2022/06/05 00:23:25;;;;;;;0.45;0.45;;;15.90;74.10;;;;;;4987693;28;96048;-49
2022/06/05 00:26:22;;;;;;;0.30;0.30;;;15.90;74.10;;;;;;4988366;28;95585;-51
2022/06/05 00:29:09;;;;;;;0.32;0.32;;;15.90;74.10;;;;;;4989601;28;95958;-50
2022/06/05 00:31:59;;;;;;;0.70;0.45;;;15.90;74.10;;;;;;4983421;28;96094;-50
2022/06/05 00:34:31;;;;;;;0.70;0.40;;;16.00;74.20;;;;;;4985193;28;95846;-48
2022/06/05 00:37:33;;;;;;;0.85;0.40;;;16.00;74.10;;;;;;4990116;28;95574;-49
2022/06/05 00:40:13;;;;;;;0.40;0.40;;;15.90;74.10;;;;;;4983794;28;95751;-53
2022/06/05 00:42:46;;;;;;;0.52;0.38;;;15.90;74.00;;;;;;4985761;28;95854;-51
2022/06/05 00:45:19;;;;;;;1.00;0.35;;;15.90;74.10;;;;;;4982966;28;96589;-48
2022/06/05 00:47:50;;;;;;;2.22;0.82;;;15.90;74.10;;;;;;4988912;28;95907;-50
2022/06/05 00:50:29;;;;;;;0.55;0.50;;;15.90;74.10;;;;;;4989518;28;95817;-50
2022/06/05 00:53:04;;;;;;;0.60;0.60;;;15.90;74.10;;;;;;4979296;28;97725;-49
2022/06/05 00:55:42;;;;;;;0.50;0.50;;;15.90;74.00;;;;;;4988728;28;95872;-54
2022/06/05 00:58:14;;;;;;;0.40;0.40;;;15.90;74.00;;;;;;4987564;28;95637;-52
2022/06/05 01:00:51;;;;;;;0.40;0.40;;;15.80;74.00;;;;;;4983123;28;95552;-50
2022/06/05 01:03:23;;;;;;;0.85;0.40;;;15.80;74.00;;;;;;4988999;28;97922;-49
2022/06/05 01:05:54;;;;;;;1.55;0.60;;;15.80;74.00;;;;;;4989031;28;96033;-48
2022/06/05 01:08:26;;;;;;;0.77;0.60;;;15.80;74.00;;;;;;4982846;28;96244;-49
2022/06/05 01:11:05;;;;;;;0.47;0.43;;;15.80;74.00;;;;;;4972128;28;97380;-50
2022/06/05 01:13:47;;;;;;;0.77;0.60;;;15.80;74.00;;;;;;4986552;28;96529;-48
2022/06/05 01:16:29;;;;;;;1.05;0.40;;;15.90;74.10;;;;;;4978944;28;95798;-50
2022/06/05 01:19:21;;;;;;;0.63;0.63;;;15.90;74.00;;;;;;4989024;28;95904;-50
2022/06/05 01:22:10;;;;;;;0.52;0.30;;;15.90;74.00;;;;;;4984087;28;96706;-51
2022/06/05 01:25:05;;;;;;;1.35;0.60;;;16.00;74.10;;;;;;4984086;28;95799;-48
2022/06/05 01:27:40;;;;;;;2.15;0.50;;;16.00;74.20;;;;;;4986156;28;95392;-49
2022/06/05 01:30:23;;;;;;;0.63;0.60;;;16.00;74.30;;;;;;4963911;28;95861;-49
2022/06/05 01:33:15;;;;;;;3.03;0.55;;;16.10;74.30;;;;;;4966272;28;95890;-48
2022/06/05 01:36:07;;;;;;;0.70;0.40;;;16.10;74.30;;;;;;4966956;28;96071;-46
2022/06/05 01:38:44;;;;;;;1.98;0.57;;;16.00;74.30;;;;;;4988881;28;95962;-48
2022/06/05 01:41:24;;;;;;;0.55;0.50;;;16.10;72.90;;;;;;4984203;28;97574;-47
2022/06/05 01:43:58;;;;;;;0.95;0.85;;;16.00;74.30;;;;;;4983456;28;95725;-49
2022/06/05 01:46:36;;;;;;;0.93;0.60;;;16.10;74.30;;;;;;4976983;28;98611;-48
2022/06/05 01:49:22;;;;;;;1.23;0.60;;;16.00;74.30;;;;;;4985081;28;95898;-51
2022/06/05 01:52:03;;;;;;;0.75;0.75;;;16.10;74.40;;;;;;4979332;28;95270;-50
2022/06/05 01:54:57;;;;;;;3.47;0.70;;;16.10;74.40;;;;;;4986037;28;95802;-50
2022/06/05 01:57:31;;;;;;;1.30;0.70;;;16.10;74.40;;;;;;4981861;28;96046;-48
2022/06/05 02:00:13;;;;;;;0.98;0.80;;;16.10;74.30;;;;;;4988628;28;95823;-48
2022/06/05 02:02:47;;;;;;;1.05;0.70;;;16.20;74.40;;;;;;4983521;28;95872;-49
2022/06/05 02:05:25;;;;;;;0.70;0.70;;;16.10;74.30;;;;;;4987189;28;95652;-48
2022/06/05 02:08:01;;;;;;;0.52;0.52;;;16.20;74.30;;;;;;4970272;28;96909;-50
2022/06/05 02:10:45;;;;;;;1.27;0.70;;;16.10;74.20;;;;;;4987905;28;95693;-50
2022/06/05 02:13:18;;;;;;;1.27;0.73;;;16.20;74.20;;;;;;4988060;28;95530;-50
2022/06/05 02:15:53;;;;;;;1.52;0.80;;;16.10;74.10;;;;;;4978190;28;96066;-49
2022/06/05 02:18:26;;;;;;;1.25;0.75;;;16.10;74.00;;;;;;4988070;28;96465;-49
2022/06/05 02:20:59;;;;;;;1.73;0.80;;;16.20;74.00;;;;;;4984563;28;95968;-49
2022/06/05 02:23:34;;;;;;;6.43;0.90;;;16.20;73.90;;;;;;4986586;28;95698;-47
2022/06/05 02:26:07;;;;;;;1.00;0.73;;;16.10;73.80;;;;;;4987961;28;95832;-49
2022/06/05 02:28:40;;;;;;;2.63;1.08;;;16.10;73.80;;;;;;4987896;28;96054;-51
2022/06/05 02:31:24;;;;;;;0.90;0.80;;;16.10;73.90;;;;;;4981553;28;96206;-47
2022/06/05 02:34:07;;;;;;;2.03;1.25;;;16.20;72.40;;;;;;4983626;28;95283;-52
2022/06/05 02:37:11;;;;;;;1.48;0.88;;;16.10;73.80;;;;;;4983392;28;95919;-47
2022/06/05 02:40:19;;;;;;;1.75;1.00;;;16.10;73.80;;;;;;4985001;28;96225;-50
2022/06/05 02:43:20;;;;;;;2.50;1.17;;;16.10;74.10;;;;;;4986671;28;95603;-50
2022/06/05 02:46:09;;;;;;;1.13;0.90;;;16.10;73.90;;;;;;4981651;28;95720;-48
2022/06/05 02:48:54;;;;;;;1.88;1.00;;;16.20;73.70;;;;;;4987654;28;95823;-52
2022/06/05 02:51:35;;;;;;;1.42;0.82;;;16.20;73.50;;;;;;4988356;28;96032;-53
2022/06/05 02:54:07;;;;;;;2.05;1.05;;;16.30;73.60;;;;;;4989611;28;95659;-51
2022/06/05 02:56:38;;;;;;;;;;;16.30;73.50;;;;;;4990117;28;95691;-52
2022/06/05 02:59:08;;;;;;;3.85;1.58;;;16.30;73.40;;;;;;4992794;28;96082;-52
2022/06/05 03:04:29;;;;;;;5.35;1.50;;;16.50;73.70;;;;;;4992334;28;95826;-52
2022/06/05 03:07:00;;;;;;;8.90;2.00;;;16.50;74.00;;;;;;4991124;28;95853;-53
2022/06/05 03:09:36;;;;;;;7.40;1.98;;;16.60;73.90;;;;;;4987631;28;95687;-53
2022/06/05 03:12:10;;;;;;;3.78;2.05;;;16.60;73.80;;;;;;4987287;28;95929;-54
2022/06/05 03:14:41;;;;;;;5.03;1.80;;;16.60;73.90;;;;;;4983265;28;95524;-53
2022/06/05 03:17:12;;;;;;;4.20;1.75;;;16.50;73.50;;;;;;4976672;28;95713;-54
2022/06/05 03:19:43;;;;;;;3.65;1.83;;;16.50;74.30;;;;;;4986633;28;95963;-53
2022/06/05 03:22:16;;;;;;;2.80;1.30;;;16.50;73.70;;;;;;4983293;28;95846;-52
2022/06/05 03:24:49;;;;;;;4.57;1.67;;;16.50;73.40;;;;;;4989629;28;95561;-54
2022/06/05 03:27:21;;;;;;;6.85;1.75;;;16.40;73.40;;;;;;4990452;28;95858;-50
2022/06/05 03:29:52;;;;;;;4.72;1.63;;;16.40;73.40;;;;;;4988848;28;96527;-52
2022/06/05 03:32:23;;;;;;;2.67;1.50;;;16.40;73.40;;;;;;4978870;28;95933;-47
2022/06/05 03:34:54;;;;;;;3.08;1.25;;;16.40;73.30;;;;;;4985473;28;95974;-49
2022/06/05 03:37:25;;;;;;;4.43;1.55;;;16.40;73.20;;;;;;4989299;28;95749;-47
2022/06/05 03:39:57;;;;;;;3.25;1.40;;;16.30;73.10;;;;;;4989615;28;95700;-51
2022/06/05 03:42:29;;;;;;;4.25;1.40;;;16.30;73.10;;;;;;4989320;28;95980;-49
2022/06/05 03:44:59;;;;;;;1.55;1.42;;;16.30;73.10;;;;;;4986606;28;95818;-48
2022/06/05 03:47:31;;;;;;;3.67;1.58;;;16.30;73.10;;;;;;4987682;28;95778;-51
2022/06/05 03:50:06;;;;;;;3.25;1.35;;;16.30;73.10;;;;;;4988441;28;96733;-51
2022/06/05 03:52:40;;;;;;;3.30;1.35;;;16.20;73.00;;;;;;4969567;28;97316;-48
2022/06/05 03:55:16;;;;;;;3.22;1.17;;;16.20;73.60;;;;;;4990051;28;95802;-47
2022/06/05 03:57:47;;;;;;;1.65;1.08;;;16.20;72.70;;;;;;4979078;28;95550;-49
2022/06/05 04:00:22;;;;;;;2.00;0.80;;;16.20;72.70;;;;;;4989839;28;95876;-49
2022/06/05 04:02:53;;;;;;;3.05;1.38;;;16.20;72.70;;;;;;4987731;28;96506;-51
2022/06/05 04:05:25;;;;;;;2.13;0.90;;;16.10;72.70;;;;;;4989636;28;95753;-50
2022/06/05 04:07:58;;;;;;;3.17;1.17;;;16.10;72.70;;;;;;4990589;28;95719;-48
2022/06/05 04:10:29;;;;;;;3.92;1.20;;;16.20;72.80;;;;;;4990503;28;98205;-48
2022/06/05 04:13:01;;;;;;;;;;;16.10;72.70;;;;;;4991696;28;95913;-50
2022/06/05 04:15:40;;;;;;;1.58;1.02;;;16.10;72.70;;;;;;4984105;28;95921;-48
2022/06/05 04:18:13;;;;;;;2.17;1.20;;;16.10;72.60;;;;;;4986305;28;96402;-48
2022/06/05 04:20:44;;;;;;;1.27;0.95;;;16.10;72.70;;;;;;4988378;28;96069;-48
2022/06/05 04:23:15;;;;;;;;;;;16.10;72.70;;;;;;4971474;28;96085;-50
2022/06/05 04:25:46;;;;;;;2.58;1.23;;;16.00;72.70;;;;;;4991178;28;95810;-48
2022/06/05 04:28:18;;;;;;;2.55;0.85;;;16.10;72.70;;;;;;4983315;28;95891;-49
2022/06/05 04:30:49;;;;;;;2.17;1.33;;;16.00;72.60;;;;;;4983799;28;95670;-50
2022/06/05 04:33:21;;;;;;;2.83;1.48;;;16.00;72.60;;;;;;4986159;28;97599;-49
2022/06/05 04:35:53;;;;;;;1.52;1.00;;;16.00;73.00;;;;;;4985779;28;95961;-50
2022/06/05 04:38:25;;;;;;;1.80;1.20;;;16.00;73.10;;;;;;4987320;28;95702;-48
2022/06/05 04:40:59;;;;;;;1.25;0.90;;;16.00;73.20;;;;;;4988739;28;95738;-48
2022/06/05 04:43:30;;;;;;;2.97;1.50;;;16.00;73.20;;;;;;4989173;28;96667;-48
2022/06/05 04:46:00;;;;;;;1.08;0.80;;;16.00;73.40;;;;;;4984354;28;95964;-48
2022/06/05 04:48:31;;;;;;;2.03;1.13;;;16.00;73.50;;;;;;4989231;28;95891;-48
2022/06/05 04:51:06;;;;;;;;;;;16.00;73.60;;;;;;4988700;28;95776;-51
2022/06/05 04:53:41;;;;;;;2.25;1.17;;;16.00;73.50;;;;;;4976173;28;96177;-49
2022/06/05 04:56:17;;;;;;;1.77;1.10;;;16.00;73.60;;;;;;4988692;28;95814;-49
2022/06/05 04:58:47;;;;;;;1.08;0.95;;;16.00;73.60;;;;;;4989253;28;95365;-49
2022/06/05 05:01:29;;;;;;;;;;;16.00;73.70;;;;;;4984253;28;98537;-47
2022/06/05 05:04:04;;;;;;;2.05;0.93;;;16.00;72.20;;;;;;4990598;28;97890;-50
2022/06/05 05:06:37;;;;;;;1.73;0.90;;;15.90;73.70;;;;;;4988612;28;95879;-48
2022/06/05 05:09:09;;;;;;;1.95;1.17;;;15.90;73.70;;;;;;4987026;28;95292;-52
2022/06/05 05:11:44;;;;;;;1.33;0.93;;;15.90;73.80;;;;;;4988321;28;95615;-51
2022/06/05 05:14:15;;;;;;;1.02;0.90;;;15.90;73.80;;;;;;4987154;28;96465;-49
2022/06/05 05:16:47;;;;;;;;;;;15.90;73.80;;;;;;4979933;28;95794;-48
2022/06/05 05:19:19;;;;;;;1.65;0.70;;;15.90;73.80;;;;;;4990290;28;95816;-45
2022/06/05 05:21:50;;;;;;;1.30;1.15;;;15.80;73.80;;;;;;4989027;28;96049;-48
2022/06/05 05:24:21;;;;;;;;;;;15.90;73.90;;;;;;4970641;28;96131;-46
2022/06/05 05:26:53;;;;;;;2.47;1.07;;;15.80;73.90;;;;;;4989366;28;95673;-45
2022/06/05 05:29:24;;;;;;;4.38;1.10;;;15.80;74.00;;;;;;4988272;28;95910;-47
2022/06/05 05:31:55;;;;;;;;;;;15.80;74.10;;;;;;4983448;28;95853;-48
2022/06/05 05:34:27;;;;;;;3.90;1.00;;;15.80;74.20;;;;;;4988502;28;97703;-49
2022/06/05 05:36:59;;;;;;;1.38;1.08;;;15.80;74.20;;;;;;4989055;28;95603;-50
2022/06/05 05:42:22;;;;;;;2.15;1.05;;;15.80;74.30;;;;;;4985877;28;95376;-49
2022/06/05 05:44:52;;;;;;;3.20;1.02;;;15.80;74.40;;;;;;4988194;28;98820;-53
2022/06/05 05:47:27;;;;;;;2.90;1.17;;;15.80;74.50;;;;;;4969067;28;95879;-48
2022/06/05 05:50:04;;;;;;;1.42;1.30;;;15.70;74.40;;;;;;4968394;28;95860;-48
2022/06/05 05:52:36;;;;;;;2.20;1.20;;;15.70;74.40;;;;;;4967825;28;95836;-49
2022/06/05 05:55:17;;;;;;;1.58;0.90;;;15.70;74.40;;;;;;4969519;28;96671;-49
2022/06/05 05:57:49;;;;;;;1.10;0.95;;;15.70;74.40;;;;;;4965517;28;95622;-49
2022/06/05 06:00:22;;;;;;;1.92;1.08;;;15.70;74.50;;;;;;4961258;28;95894;-48
2022/06/05 06:02:52;;;;;;;1.20;1.02;;;15.70;74.50;;;;;;4969262;28;95923;-51
2022/06/05 06:05:25;;;;;;;1.50;0.88;;;15.60;74.50;;;;;;4968300;28;95837;-48
2022/06/05 06:07:59;;;;;;;1.25;1.10;;;15.60;74.50;;;;;;4968149;28;95865;-48
2022/06/05 06:10:31;;;;;;;2.53;1.27;;;15.60;74.40;;;;;;4966007;28;95866;-49
2022/06/05 06:13:05;;;;;;;1.45;1.08;;;15.60;74.40;;;;;;4968395;28;95512;-49
2022/06/05 06:15:38;;;;;;;1.65;1.10;;;15.60;74.40;;;;;;4961210;28;97656;-50
2022/06/05 06:18:09;;;;;;;1.15;1.10;;;15.60;74.40;;;;;;4965784;28;95916;-48
2022/06/05 06:20:45;;;;;;;2.75;1.13;;;15.60;74.40;;;;;;4969186;28;97687;-49
2022/06/05 06:23:17;;;;;;;1.08;0.93;;;15.60;74.40;;;;;;4966944;28;95908;-49
2022/06/05 06:25:49;;;;;;;0.80;0.77;;;15.60;74.40;;;;;;4968707;28;95902;-48
2022/06/05 06:28:20;;;;;;;0.82;0.80;;;15.50;74.30;;;;;;4969621;28;95576;-50
2022/06/05 06:30:51;;;;;;;1.25;1.15;;;15.50;74.30;;;;;;4964695;28;96380;-48
2022/06/05 06:33:22;;;;;;;1.43;0.87;;;15.50;74.40;;;;;;4970623;28;96008;-49
2022/06/05 06:35:54;;;;;;;2.05;0.85;;;15.50;74.50;;;;;;4965936;28;96139;-51
2022/06/05 06:38:26;;;;;;;0.80;0.75;;;15.50;74.40;;;;;;4970899;28;96374;-50
2022/06/05 06:41:00;;;;;;;;;;;15.50;74.40;;;;;;4970831;28;95730;-50
2022/06/05 06:43:31;;;;;;;1.77;0.95;;;15.40;74.40;;;;;;4971004;28;95452;-49
2022/06/05 06:46:02;;;;;;;;;;;15.40;74.40;;;;;;4966457;28;96116;-49
2022/06/05 06:48:37;;;;;;;1.73;1.23;;;15.40;74.50;;;;;;4985972;28;95818;-51
2022/06/05 06:51:15;;;;;;;1.23;1.00;;;15.40;74.40;;;;;;4968372;28;95326;-51
2022/06/05 06:53:50;;;;;;;0.93;0.70;;;15.40;74.40;;;;;;4971243;28;95727;-49
2022/06/05 06:56:28;;;;;;;1.10;0.70;;;15.40;74.40;;;;;;4970611;28;96113;-50
2022/06/05 06:59:00;;;;;;;0.85;0.80;;;15.40;74.50;;;;;;4967920;28;96828;-48
2022/06/05 07:01:32;;;;;;;0.75;0.73;;;15.40;74.40;;;;;;4965935;28;95825;-51
2022/06/05 07:04:02;;;;;;;0.60;0.60;;;15.40;74.50;;;;;;4970158;28;95382;-54
2022/06/05 07:06:33;;;;;;;1.88;0.90;;;15.30;74.50;;;;;;4968188;28;96680;-50
2022/06/05 07:09:05;;;;;;;1.15;1.02;;;15.30;74.50;;;;;;4952855;28;95814;-50
2022/06/05 07:11:37;;;;;;;1.42;1.20;;;15.30;74.50;;;;;;4970882;28;95514;-50
2022/06/05 07:14:11;;;;;;;0.70;0.70;;;15.30;74.50;;;;;;4970789;28;96443;-51
2022/06/05 07:16:41;;;;;;;2.45;1.10;;;15.30;74.50;;;;;;4965443;28;96388;-49
2022/06/05 07:19:12;;;;;;;0.88;0.82;;;15.30;74.50;;;;;;4970655;28;95935;-50
2022/06/05 07:21:45;;;;;;;0.77;0.70;;;15.30;74.50;;;;;;4968870;28;95907;-49
2022/06/05 07:24:21;;;;;;;1.20;0.98;;;15.30;74.50;;;;;;4968952;28;95540;-49
2022/06/05 07:26:54;;;;;;;0.90;0.90;;;15.30;74.50;;;;;;4968059;28;95989;-47
2022/06/05 07:29:25;;;;;;;0.63;0.63;;;15.20;74.50;;;;;;4969549;28;95908;-49
2022/06/05 07:31:55;;;;;;;1.33;0.83;;;15.30;74.60;;;;;;4965088;28;95965;-51
2022/06/05 07:34:27;;;;;;;1.15;0.77;;;15.20;74.50;;;;;;4970265;28;96138;-51
2022/06/05 07:37:01;;;;;;;0.73;0.70;;;15.20;74.50;;;;;;4970120;28;95700;-49
2022/06/05 07:39:33;;;;;;;1.48;1.23;;;15.20;74.60;;;;;;4966642;28;96751;-50
2022/06/05 07:42:06;;;;;;;2.85;1.10;;;15.20;74.60;;;;;;4969244;28;95513;-50
2022/06/05 07:44:37;;;;;;;1.52;0.90;;;15.20;74.60;;;;;;4969864;28;95762;-49
2022/06/05 07:47:09;;;;;;;0.80;0.80;;;15.20;74.70;;;;;;4964323;28;96649;-50
2022/06/05 07:49:41;;;;;;;0.75;0.75;;;15.20;74.70;;;;;;4984957;28;95722;-49
2022/06/05 07:55:06;;;;;;;0.93;0.80;;;15.20;74.70;;;;;;4968182;28;95964;-50
2022/06/05 07:57:38;;;;;;;0.90;0.90;;;15.10;74.80;;;;;;4969786;28;95887;-52
2022/06/05 08:00:11;;;;;;;0.55;0.55;;;15.20;74.90;;;;;;4963996;28;96180;-55
2022/06/05 08:02:44;;;;;;;0.60;0.60;;;15.10;74.80;;;;;;4966582;28;95622;-51
2022/06/05 08:05:14;;;;;;;0.80;0.80;;;15.10;74.80;;;;;;4968072;28;95699;-50
2022/06/05 08:07:46;;;;;;;0.68;0.68;;;15.10;74.80;;;;;;4969720;28;96482;-50
2022/06/05 08:10:20;;;;;;;1.38;0.80;;;15.10;74.80;;;;;;4968798;28;95801;-48
2022/06/05 08:12:54;;;;;;;1.02;1.00;;;15.10;74.80;;;;;;4967909;28;95863;-51
2022/06/05 08:15:28;;;;;;;0.80;0.80;;;15.10;74.90;;;;;;4964463;28;95912;-52
2022/06/05 08:18:04;;;;;;;2.05;0.75;;;15.10;75.00;;;;;;4968013;28;102470;-52
2022/06/05 08:20:37;;;;;;;0.95;0.88;;;15.10;74.90;;;;;;4968962;28;96470;-54
2022/06/05 08:23:09;;;;;;;0.85;0.50;;;15.10;75.60;;;;;;4967736;28;95779;-54
2022/06/05 08:25:44;;;;;;;5.97;0.73;;;15.10;75.00;;;;;;4965236;28;97765;-41
2022/06/05 08:28:19;;;;;;;0.73;0.73;;;15.10;74.90;;;;;;4943082;28;97941;-38
2022/06/05 08:30:55;;;;;;;1.73;0.70;;;15.10;75.10;;;;;;4957815;28;95904;-38
2022/06/05 08:33:26;;;;;;;0.70;0.70;;;15.20;75.10;;;;;;4963461;28;95812;-38
2022/06/05 08:35:58;;;;;;;1.33;0.80;;;15.20;75.10;;;;;;4958542;28;96455;-39
2022/06/05 08:41:49;;;;;;;1.02;0.77;;;15.40;75.20;;;;;;4959236;28;95707;-37
2022/06/05 08:44:42;;;;;;;3.20;2.10;;;15.50;75.10;;;;;;4962765;28;95902;-40
2022/06/05 08:47:30;;;;;;;8.63;5.50;;;15.50;75.10;;;;;;4952911;28;95886;-37
2022/06/05 08:50:35;;;;;;;7.60;4.82;;;15.60;75.10;;;;;;4942642;28;96231;-38
2022/06/05 08:53:22;;;;;;;6.65;5.45;;;15.60;75.10;;;;;;4958669;28;95881;-38
2022/06/05 08:55:58;;;;;;;7.32;4.90;;;15.60;75.20;;;;;;4957039;28;95847;-47
2022/06/05 08:58:48;;;;;;;7.72;5.28;;;15.60;75.30;;;;;;4966444;28;96611;-46
2022/06/05 09:01:42;;;;;;;7.15;4.80;;;15.60;75.40;;;;;;4961616;28;97142;-46
2022/06/05 09:04:33;;;;;;;7.15;4.63;;;15.70;75.60;;;;;;4945027;28;95981;-45
2022/06/05 09:07:11;;;;;;;7.18;4.85;;;15.70;75.60;;;;;;4965301;28;95890;-45
2022/06/05 09:10:21;;;;;;;7.97;4.70;;;15.70;75.60;;;;;;4959475;28;96047;-45
2022/06/05 09:13:02;;;;;;;6.63;4.30;;;15.70;75.60;;;;;;4958120;28;96090;-45
2022/06/05 09:15:43;;;;;;;6.47;4.68;;;15.70;75.60;;;;;;4952972;28;95805;-45
2022/06/05 09:18:18;;;;;;;5.88;4.15;;;15.70;75.50;;;;;;4958778;28;96387;-45
2022/06/05 09:20:58;;;;;;;8.27;4.07;;;15.70;75.50;;;;;;4962511;28;95439;-45
2022/06/05 09:24:07;;;;;;;5.82;3.92;;;15.70;75.30;;;;;;4959651;28;96560;-45
2022/06/05 09:26:47;;;;;;;5.32;3.38;;;15.70;75.30;;;;;;4960792;28;95595;-45
2022/06/05 09:29:43;;;;;;;4.45;3.20;;;15.80;75.10;;;;;;4967300;28;95786;-45
2022/06/05 09:32:44;;;;;;;7.82;2.75;;;15.90;75.00;;;;;;4957383;28;96235;-45
2022/06/05 09:35:30;;;;;;;3.38;2.53;;;15.90;74.90;;;;;;4956349;28;96240;-45
2022/06/05 09:38:08;;;;;;;2.20;1.85;;;16.00;74.90;;;;;;4961630;28;95933;-45
2022/06/05 09:40:59;;;;;;;2.30;1.70;;;16.10;74.90;;;;;;4953841;28;95725;-45
2022/06/05 09:43:54;;;;;;;3.45;1.85;;;16.20;74.70;;;;;;4962065;28;95737;-45
2022/06/05 09:46:33;;;;;;;2.25;1.73;;;16.20;74.60;;;;;;4955102;28;98729;-47
2022/06/05 09:49:19;;;;;;;1.52;1.35;;;16.20;74.60;;;;;;4958089;28;95971;-47
2022/06/05 09:51:50;;;;;;;2.15;1.80;;;16.30;74.40;;;;;;4960157;28;95949;-47
2022/06/05 09:54:33;;;;;;;2.10;1.83;;;16.30;74.20;;;;;;4961313;28;95672;-47
2022/06/05 10:00:44;;;;;;;1.48;1.38;;;16.40;74.10;;;;;;4953818;28;95456;-48
2022/06/05 10:03:33;;;;;;;2.28;1.50;;;16.40;74.00;;;;;;4931364;28;95836;-47
2022/06/05 10:06:29;;;;;;;1.70;1.20;;;16.40;74.00;;;;;;4959072;28;95833;-48
2022/06/05 10:09:09;;;;;;;1.73;1.38;;;16.40;73.90;;;;;;4961320;28;97058;-47
2022/06/05 10:11:59;;;;;;;1.63;1.52;;;16.40;73.80;;;;;;4962555;28;95828;-48
2022/06/05 10:14:35;;;;;;;3.50;1.70;;;16.40;73.70;;;;;;4961313;28;95867;-48
2022/06/05 10:17:09;;;;;;;1.42;1.33;;;16.40;73.60;;;;;;4960970;28;95948;-47
2022/06/05 10:20:22;;;;;;;1.67;1.40;;;16.40;73.50;;;;;;4956587;28;95638;-48
2022/06/05 10:23:11;;;;;;;1.10;0.98;;;16.40;73.60;;;;;;4940913;28;95667;-48
2022/06/05 10:26:01;;;;;;;2.78;1.83;;;16.40;74.20;;;;;;4962573;28;95988;-48
2022/06/05 10:28:39;;;;;;;2.78;1.67;;;16.40;73.50;;;;;;4962451;28;95673;-48
2022/06/05 10:31:23;;;;;;;3.30;2.08;;;16.40;73.40;;;;;;4955100;28;96013;-47
2022/06/05 10:34:28;;;;;;;2.00;1.30;;;16.40;73.40;;;;;;4958690;28;95788;-48
2022/06/05 10:37:24;;;;;;;1.58;1.13;;;16.40;73.30;;;;;;4961150;28;95829;-47
2022/06/05 10:40:28;;;;;;;1.52;1.40;;;16.50;73.30;;;;;;4957095;28;96141;-48
2022/06/05 10:43:14;;;;;;;1.30;1.20;;;16.50;73.10;;;;;;4951888;28;96147;-48
2022/06/05 10:45:53;;;;;;;1.30;1.20;;;16.60;73.00;;;;;;4956068;28;96010;-47
2022/06/05 10:48:41;;;;;;;1.20;1.10;;;16.60;72.80;;;;;;4946540;28;95407;-48
2022/06/05 10:52:08;;;;;;;1.75;1.38;;;16.60;72.60;;;;;;4961074;28;96264;-47
2022/06/05 10:54:58;;;;;;;1.40;1.23;;;16.70;72.50;;;;;;4934332;28;96187;-48
2022/06/05 10:57:39;;;;;;;1.23;1.05;;;16.70;72.40;;;;;;4959897;28;96502;-41
2022/06/05 11:00:29;;;;;;;1.10;1.00;;;16.80;72.40;;;;;;4956568;28;95843;-40
2022/06/05 11:03:20;;;;;;;1.10;1.00;;;16.70;72.20;;;;;;4981280;28;95889;-38
2022/06/05 11:06:25;;;;;;;1.30;1.00;;;16.80;72.10;;;;;;4964525;28;96121;-46
2022/06/05 11:09:38;;;;;;;2.65;1.10;;;16.80;72.00;;;;;;4972009;28;95485;-46
2022/06/05 11:15:24;;;;;;;2.27;1.20;;;16.70;71.90;;;;;;4984942;28;95303;-46
2022/06/05 11:18:21;;;;;;;1.52;1.15;;;16.70;71.80;;;;;;4984786;28;102379;-46
2022/06/05 11:21:01;;;;;;;1.33;0.95;;;16.70;71.80;;;;;;4987196;28;95845;-45
2022/06/05 11:23:41;;;;;;;1.55;0.70;;;16.70;71.70;;;;;;4987691;28;95660;-47
2022/06/05 11:26:35;;;;;;;1.90;1.27;;;16.70;71.60;;;;;;4988165;28;95614;-46
2022/06/05 11:29:22;;;;;;;1.00;0.90;;;16.70;71.60;;;;;;4967130;28;96381;-46
2022/06/05 11:32:17;;;;;;;1.80;1.00;;;16.60;71.50;;;;;;4977333;28;96342;-46
2022/06/05 11:35:00;;;;;;;0.80;0.80;;;16.60;71.40;;;;;;4985566;28;97148;-46
2022/06/05 11:38:00;;;;;;;0.90;0.90;;;16.60;71.40;;;;;;4984595;28;95914;-46
2022/06/05 11:40:42;;;;;;;0.70;0.70;;;16.60;71.30;;;;;;4984714;28;96433;-47
2022/06/05 11:43:40;;;;;;;1.60;0.77;;;16.60;71.30;;;;;;4976760;28;96511;-47
2022/06/05 11:46:37;;;;;;;0.82;0.82;;;16.60;71.30;;;;;;4975356;28;95791;-46
2022/06/05 11:49:21;;;;;;;3.00;1.27;;;16.60;71.20;;;;;;4984076;28;95876;-37
2022/06/05 11:52:03;;;;;;;2.95;2.33;;;16.60;71.30;;;;;;4979299;28;95863;-37
2022/06/05 11:55:07;;;;;;;4.22;2.67;;;16.60;71.60;;;;;;4981761;28;95498;-45
2022/06/05 11:57:50;;;;;;;3.45;2.40;;;16.60;71.90;;;;;;4984717;28;95981;-46
2022/06/05 12:00:35;;;;;;;3.90;2.90;;;16.80;71.90;;;;;;4973623;28;95852;-47
2022/06/05 12:03:56;;;;;;;3.00;2.70;;;16.80;71.80;;;;;;4980305;28;96733;-47
2022/06/05 12:06:34;;;;;;;2.78;2.55;;;16.80;71.70;;;;;;4950694;28;95975;-46
2022/06/05 12:09:27;;;;;;;4.38;3.30;;;16.80;71.00;;;;;;4979756;28;95944;-46
2022/06/05 12:12:15;;;;;;;3.92;3.15;;;16.80;71.00;;;;;;4982063;28;95873;-47
2022/06/05 12:14:53;;;;;;;4.80;3.10;;;16.80;70.80;;;;;;4974632;28;96238;-47
2022/06/05 12:17:51;;;;;;;3.90;3.15;;;16.70;70.70;;;;;;4974863;28;95625;-47
2022/06/05 12:21:06;;;;;;;5.30;3.50;;;16.70;70.60;;;;;;4967685;28;96180;-47
2022/06/05 12:23:54;;;;;;;3.22;2.92;;;16.70;70.40;;;;;;4972111;28;98364;-46
2022/06/05 12:26:46;;;;;;;4.10;3.33;;;16.70;70.40;;;;;;4978732;28;97948;-47
2022/06/05 12:29:28;;;;;;;3.28;2.70;;;16.70;70.40;;;;;;4986204;28;95753;-47
2022/06/05 12:32:04;;;;;;;;;;;16.70;70.30;;;;;;4982020;28;96239;-47
2022/06/05 12:34:44;;;;;;;3.60;2.95;;;16.70;70.20;;;;;;4986943;28;96108;-47
2022/06/05 12:37:36;;;;;;;3.67;2.80;;;16.60;70.20;;;;;;4989013;28;97229;-47
2022/06/05 12:40:21;;;;;;;3.75;3.42;;;16.60;70.10;;;;;;4980702;28;95824;-47
2022/06/05 12:43:15;;;;;;;4.15;3.13;;;16.60;67.90;;;;;;4985985;28;95972;-47
2022/06/05 12:45:53;;;;;;;3.45;2.33;;;16.60;70.10;;;;;;4971602;28;95848;-47
2022/06/05 12:48:28;;;;;;;3.15;2.67;;;16.60;70.00;;;;;;4985148;28;96079;-50
2022/06/05 12:51:12;;;;;;;3.13;2.80;;;16.50;70.00;;;;;;4987909;28;95984;-47
2022/06/05 12:54:16;;;;;;;4.90;2.90;;;16.50;70.00;;;;;;4984692;28;95919;-47
2022/06/05 12:56:55;;;;;;;3.40;2.55;;;16.50;69.90;;;;;;4986911;28;96030;-47
2022/06/05 12:59:47;;;;;;;3.17;2.80;;;16.50;70.00;;;;;;4984994;28;96143;-47
2022/06/05 13:02:34;;;;;;;3.95;2.92;;;16.50;69.90;;;;;;4978884;28;95988;-47
2022/06/05 13:05:35;;;;;;;3.22;2.35;;;16.50;69.90;;;;;;4984366;28;95345;-39
2022/06/05 13:08:14;;;;;;;3.05;2.53;;;16.40;69.80;;;;;;4985514;28;95699;-38
2022/06/05 13:11:17;;;;;;;3.15;2.55;;;16.40;69.90;;;;;;4985960;28;97134;-39
2022/06/05 13:14:08;;;;;;;4.45;2.67;;;16.40;69.90;;;;;;4987931;28;95798;-39
2022/06/05 13:16:57;;;;;;;3.63;2.97;;;16.40;69.90;;;;;;4978427;28;95304;-38
2022/06/05 13:19:35;;;;;;;3.72;3.05;;;16.40;69.90;;;;;;4987575;28;95663;-38
2022/06/05 13:22:36;;;;;;;4.32;3.33;;;16.30;69.80;;;;;;4984535;28;96577;-39
2022/06/05 13:25:18;;;;;;;3.47;3.17;;;16.30;69.80;;;;;;4985483;28;95947;-39
2022/06/05 13:27:52;;;;;;;2.95;2.58;;;16.30;69.80;;;;;;4987037;28;96346;-39
2022/06/05 13:30:27;;;;;;;4.63;3.53;;;16.30;69.80;;;;;;4980599;28;96165;-39
2022/06/05 13:33:10;;;;;;;3.72;3.17;;;16.30;69.80;;;;;;4964250;28;102712;-38
2022/06/05 13:35:53;;;;;;;4.00;3.28;;;16.20;70.10;;;;;;4963883;28;95688;-38
2022/06/05 13:38:47;;;;;;;4.95;3.45;;;16.20;70.40;;;;;;4961556;28;95731;-38
2022/06/05 13:42:00;;;;;;;4.72;3.28;;;16.20;70.60;;;;;;4967726;28;95825;-45
2022/06/05 13:44:35;;;;;;;4.28;3.28;;;16.30;70.70;;;;;;4964466;28;97105;-45
2022/06/05 13:47:24;;;;;;;4.45;3.08;;;16.20;70.60;;;;;;4958651;28;96195;-46
2022/06/05 13:50:17;;;;;;;4.50;3.53;;;16.30;70.70;;;;;;4966258;28;95585;-47
2022/06/05 13:52:51;;;;;;;3.67;3.30;;;16.20;70.50;;;;;;4968289;28;95874;-47
2022/06/05 13:55:48;;;;;;;4.05;3.00;;;16.30;70.40;;;;;;4964073;28;95959;-47
2022/06/05 13:58:36;;;;;;;3.85;2.92;;;16.20;70.20;;;;;;4965557;28;95713;-46
2022/06/05 14:01:29;;;;;;;4.80;3.30;;;16.20;70.20;;;;;;4964651;28;95367;-46
2022/06/05 14:04:21;;;;;;;4.47;3.00;;;16.20;70.20;;;;;;4986206;28;97973;-46
2022/06/05 14:07:02;;;;;;;3.67;2.80;;;16.20;70.20;;;;;;4981434;28;96222;-47
2022/06/05 14:09:38;;;;;;;3.70;2.33;;;16.20;70.10;;;;;;4981586;28;96432;-47
2022/06/05 14:12:31;;;;;;;3.15;2.42;;;16.20;70.20;;;;;;4983273;28;97385;-47
2022/06/05 14:15:36;;;;;;;4.35;3.00;;;16.20;70.10;;;;;;4986021;28;98025;-44
2022/06/05 14:18:17;;;;;;;3.25;2.38;;;16.10;70.10;;;;;;4977144;28;95891;-46